»·PEaware :: NWA576 KASE-KJAC

NWA576 :: KASE-KJAC

FLIGHT INFORMATION

Flight Status: Arrived
Operator:
Northwest Airlines
More flights by this operator :: More flights under this callsign
Pilot: Anonymous 8274 (8274)
Aircraft: MCDONNELL-DOUGLAS MD-88
(MD88)
More flights by this aircraft type
Origin: KASE Aspen-Pitkin Co/Sardy
United States
Destination: KJAC Jackson Hole
United States
More flights between these airports :: More routes between these airports
Route: +LINDZ8 EKR OCS BPI JAC
File this flight plan on PilotEdge
Remarks:
Altitude:
(Current/Filed)
26,000ft
Speed:
(Current/Filed)
440kts
Departed: 09-Dec-17 06:41 PM
Arrived: 09-Dec-17 07:40 PM
Distance/Time
Traveled:
315nm/0:59
Distance/Time
To Go:
Arrived

Flight Plot

Page will automatically refresh every two minutes.

Flight plan parsing failed; only flown route is shown


Map Options




Map Legend


Flown Route
Filed Route
Departure Airport
Arrival Airport
Navaid (VOR, NDB)
Fix

Horizontal Profiles

Position Reports

Time Latitude Longitude Heading Altitude Ground
Speed
09-Dec-17 18:15 39.218574 -106.864100 248 7779ft 0kts
09-Dec-17 18:16 39.218574 -106.864100 248 7779ft 0kts
09-Dec-17 18:17 39.218574 -106.864100 248 7779ft 0kts
09-Dec-17 18:18 39.218574 -106.864100 248 7779ft 0kts
09-Dec-17 18:19 39.218574 -106.864100 248 7779ft 0kts
09-Dec-17 18:20 39.218574 -106.864100 248 7779ft 0kts
09-Dec-17 18:21 39.218574 -106.864100 248 7779ft 0kts
09-Dec-17 18:22 39.218574 -106.864100 248 7779ft 0kts
09-Dec-17 18:23 39.218574 -106.864100 248 7779ft 0kts
09-Dec-17 18:24 39.218574 -106.864100 248 7779ft 0kts
09-Dec-17 18:25 39.218574 -106.864100 248 7779ft 0kts
09-Dec-17 18:26 39.218574 -106.864100 248 7779ft 0kts
09-Dec-17 18:26 39.218574 -106.864100 248 7779ft 0kts
09-Dec-17 18:28 39.218574 -106.864100 248 7779ft 0kts
09-Dec-17 18:28 39.218574 -106.864100 248 7779ft 0kts
09-Dec-17 18:30 39.218574 -106.864100 248 7779ft 0kts
09-Dec-17 18:31 39.218574 -106.864100 248 7779ft 0kts
09-Dec-17 18:31 39.218574 -106.864100 248 7779ft 0kts
09-Dec-17 18:33 39.218574 -106.864100 248 7779ft 0kts
09-Dec-17 18:33 39.218574 -106.864100 248 7779ft 0kts
09-Dec-17 18:34 39.218574 -106.864100 248 7779ft 0kts
09-Dec-17 18:36 39.218574 -106.864100 248 7779ft 0kts
09-Dec-17 18:36 39.218574 -106.864100 248 7779ft 0kts
09-Dec-17 18:37 39.218574 -106.864100 248 7779ft 0kts
09-Dec-17 18:38 39.218574 -106.864100 248 7779ft 0kts
09-Dec-17 18:39 39.218574 -106.864100 248 7779ft 0kts
09-Dec-17 18:40 39.217502 -106.864971 166 7779ft 10kts
09-Dec-17 18:41 39.213460 -106.863035 159 7779ft 18kts
09-Dec-17 18:42 39.212513 -106.862707 221 7779ft 0kts
09-Dec-17 18:43 39.212513 -106.862707 221 7779ft 0kts
09-Dec-17 18:44 39.212513 -106.862707 221 7779ft 0kts
09-Dec-17 18:45 39.212258 -106.863222 250 7779ft 4kts
09-Dec-17 18:46 39.215524 -106.865221 338 7779ft 78kts
09-Dec-17 18:47 39.254732 -106.880827 351 8698ft 171kts
09-Dec-17 18:48 39.287141 -106.912081 281 9812ft 171kts
09-Dec-17 18:49 39.300545 -106.979475 281 10586ft 234kts
09-Dec-17 18:50 39.321585 -107.075743 291 11385ft 327kts
09-Dec-17 18:51 39.366853 -107.186030 311 13023ft 378kts
09-Dec-17 18:52 39.370041 -107.313007 247 15483ft 384kts
09-Dec-17 18:53 39.332371 -107.442638 257 16334ft 388kts
09-Dec-17 18:54 39.314123 -107.579613 280 17683ft 379kts
09-Dec-17 18:55 39.369779 -107.662574 347 18031ft 344kts
09-Dec-17 18:56 39.464446 -107.694845 344 20025ft 364kts
09-Dec-17 18:57 39.562478 -107.732706 345 22001ft 378kts
09-Dec-17 18:58 39.664636 -107.771507 345 23815ft 391kts
09-Dec-17 18:59 39.771871 -107.812385 347 24964ft 417kts
09-Dec-17 19:00 39.887174 -107.856204 346 25849ft 447kts
09-Dec-17 19:01 40.009435 -107.902739 344 26532ft 469kts
09-Dec-17 19:02 40.122683 -107.962604 330 26535ft 469kts
09-Dec-17 19:03 40.235570 -108.044398 331 26532ft 468kts
09-Dec-17 19:04 40.348215 -108.125354 331 26533ft 468kts
09-Dec-17 19:05 40.461202 -108.206486 331 26560ft 466kts
09-Dec-17 19:06 40.574575 -108.287871 331 26563ft 466kts
09-Dec-17 19:07 40.688426 -108.369556 331 26564ft 466kts
09-Dec-17 19:08 40.801851 -108.450896 331 26565ft 466kts
09-Dec-17 19:09 40.915936 -108.532672 331 26566ft 467kts
09-Dec-17 19:10 41.029329 -108.613915 331 26535ft 468kts
09-Dec-17 19:11 41.135688 -108.690082 331 26504ft 468kts
09-Dec-17 19:12 41.249847 -108.771791 331 26505ft 468kts
09-Dec-17 19:13 41.364252 -108.853640 331 26506ft 468kts
09-Dec-17 19:14 41.478408 -108.935281 331 26507ft 467kts
09-Dec-17 19:15 41.592517 -109.018336 326 26505ft 467kts
09-Dec-17 19:16 41.692314 -109.127186 319 26509ft 466kts
09-Dec-17 19:17 41.791804 -109.237853 319 26510ft 466kts
09-Dec-17 19:18 41.890518 -109.347633 324 26511ft 452kts
09-Dec-17 19:19 41.982739 -109.449604 322 26500ft 410kts
09-Dec-17 19:20 42.070292 -109.546680 322 26531ft 410kts
09-Dec-17 19:21 42.153678 -109.638978 322 26537ft 411kts
09-Dec-17 19:22 42.240297 -109.734773 322 26536ft 412kts
09-Dec-17 19:23 42.329214 -109.833029 322 26534ft 412kts
09-Dec-17 19:24 42.417623 -109.930604 322 26522ft 412kts
09-Dec-17 19:25 42.506359 -110.028464 322 26527ft 412kts
09-Dec-17 19:26 42.597188 -110.119879 333 26535ft 410kts
09-Dec-17 19:27 42.701336 -110.181150 339 26503ft 408kts
09-Dec-17 19:28 42.810073 -110.197036 355 26504ft 393kts
09-Dec-17 19:29 42.918604 -110.210191 354 26504ft 393kts
09-Dec-17 19:30 43.026857 -110.225014 354 26504ft 393kts
09-Dec-17 19:31 43.131259 -110.239434 354 26510ft 393kts
09-Dec-17 19:32 43.240047 -110.254470 354 25499ft 397kts
09-Dec-17 19:33 43.347680 -110.269341 354 23280ft 384kts
09-Dec-17 19:34 43.451538 -110.283681 354 21132ft 370kts
09-Dec-17 19:35 43.551394 -110.297466 354 19066ft 357kts
09-Dec-17 19:36 43.648285 -110.310841 354 16888ft 349kts
09-Dec-17 19:37 43.743123 -110.323934 354 14707ft 340kts
09-Dec-17 19:38 43.819511 -110.383178 298 12933ft 334kts
09-Dec-17 19:39 43.817377 -110.509624 264 11150ft 323kts
09-Dec-17 19:40 43.785850 -110.617167 247 9736ft 284kts
09-Dec-17 19:41 43.732387 -110.676605 201 9094ft 221kts
09-Dec-17 19:42 43.682186 -110.700886 199 7961ft 165kts
09-Dec-17 19:43 43.639621 -110.722018 198 6934ft 159kts
09-Dec-17 19:44 43.601830 -110.740434 199 6426ft 82kts
09-Dec-17 19:45 43.596905 -110.742614 261 6426ft 3kts
09-Dec-17 19:46 43.600435 -110.739497 19 6426ft 19kts
09-Dec-17 19:47 43.603781 -110.737454 74 6426ft 1kts
09-Dec-17 19:48 43.603559 -110.737148 124 6426ft 0kts
09-Dec-17 19:49 43.603559 -110.737148 124 6426ft 0kts
09-Dec-17 19:50 43.603559 -110.737148 124 6426ft 0kts
09-Dec-17 19:51 43.603559 -110.737148 124 6426ft 0kts
09-Dec-17 19:52 43.603559 -110.737148 124 6426ft 0kts

Navigation Log

Ident Type
Flight plan parsing failed, navigation log unavailable